To NAV CANADA Home Page Login to a new session Search on AWWS site Feedback and Comments Disclaimer Vers la page française équivalente Tips FAQ What's new on the site To the Forecasts and Observations / NOTAM section To "File a Flight Plan" website Publications and other links Update of the User's profile FIC Telephone Numbers My Weather Data Folder Route Weather Data Regional Weather Data Local Weather Data To the Forecasts and Observations / NOTAM section
Request Generated 05/30/2016 at 10:31:13 UTC . Weather information available at that time is displayed.

METAR/TAF

STONY RAPIDS/SK    (show WxCam)

METAR CYSF 301000Z AUTO 13004KT 9SM FEW040 OVC075 07/06 A3008 RMK
SLP197=
METAR CYSF 300900Z AUTO 14003KT 9SM BKN070 BKN110 07/06 A3007 RMK
SLP193=
SPECI CYSF 300809Z AUTO 12004KT 9SM BKN040 BKN110 08/06 A3005 RMK
SLP188=
METAR CYSF 300800Z AUTO 10004KT 4SM BR BKN040 BKN110 07/06 A3005 RMK
SLP188=

TAF CYSF 300538Z 3006/3018 13005KT P6SM SCT060 TEMPO 3006/3009 5SM HZ
BKN060
FM300900 10008KT P6SM SCT020 BKN050 TEMPO 3009/3018 4SM -SHRA BR
SCT010 BKN020
RMK FCST BASED ON AUTO OBS. NXT FCST BY 301200Z=
Your time UTC time
Weather data provided by Environment Canada and NAV CANADA